createdAt,value
2017-09-01T06:10:15.833Z,15.46
2017-09-01T06:10:20.661Z,15.45
2017-09-01T06:11:20.612Z,15.43
2017-09-01T06:12:20.613Z,15.47
2017-09-01T06:13:20.620Z,15.46
2017-09-01T06:14:20.622Z,15.50
2017-09-01T06:15:20.629Z,15.52
2017-09-01T06:16:20.644Z,15.54
2017-09-01T06:17:20.645Z,15.54
2017-09-01T06:18:20.630Z,15.56
2017-09-01T06:19:20.747Z,15.58
2017-09-01T06:20:20.675Z,15.58
2017-09-01T06:21:20.649Z,15.54
2017-09-01T06:22:20.697Z,15.51
2017-09-01T06:23:20.702Z,15.50
2017-09-01T06:24:20.908Z,15.52
2017-09-01T06:25:20.651Z,15.54
2017-09-01T06:26:20.668Z,15.55
2017-09-01T06:27:20.661Z,15.53
2017-09-01T06:28:20.657Z,15.56
2017-09-01T06:29:20.662Z,15.58
2017-09-01T06:30:20.672Z,15.57
2017-09-01T06:31:21.428Z,15.57
2017-09-01T06:32:20.670Z,15.55
2017-09-01T06:33:20.677Z,15.56
2017-09-01T06:34:20.680Z,15.54
2017-09-01T06:35:20.680Z,15.56
2017-09-01T06:36:24.713Z,15.52
2017-09-01T06:37:20.689Z,15.53
2017-09-01T06:38:20.692Z,15.54
2017-09-01T06:39:20.692Z,15.55
2017-09-01T06:40:20.797Z,15.57
2017-09-01T06:41:20.877Z,15.58
2017-09-01T06:42:20.725Z,15.59
2017-09-01T06:43:20.759Z,15.59
2017-09-01T06:44:20.850Z,15.61
2017-09-01T06:45:20.723Z,15.60
2017-09-01T06:46:21.068Z,15.60
2017-09-01T06:47:20.712Z,15.61
2017-09-01T06:48:20.719Z,15.61
2017-09-01T06:49:20.721Z,15.64
2017-09-01T06:50:20.801Z,15.65
2017-09-01T06:51:20.779Z,15.66
2017-09-01T06:52:20.949Z,15.68
2017-09-01T06:53:20.778Z,15.67
2017-09-01T06:54:20.749Z,15.66
2017-09-01T06:55:20.765Z,15.65
2017-09-01T06:56:20.753Z,15.64
2017-09-01T06:57:20.748Z,15.63
2017-09-01T06:58:20.742Z,15.64
2017-09-01T06:59:20.752Z,15.67
2017-09-01T07:00:20.790Z,15.67
2017-09-01T07:01:20.752Z,15.68
2017-09-01T07:02:20.760Z,15.66
2017-09-01T07:03:20.760Z,15.66
2017-09-01T07:04:20.764Z,15.66
2017-09-01T07:05:20.765Z,15.68
2017-09-01T07:06:20.768Z,15.68
2017-09-01T07:07:20.770Z,15.68
2017-09-01T07:08:20.784Z,15.69
2017-09-01T07:09:20.778Z,15.70
2017-09-01T07:10:20.783Z,15.72
2017-09-01T07:11:20.786Z,15.75
2017-09-01T07:12:20.794Z,15.76
2017-09-01T07:13:20.812Z,15.77
2017-09-01T07:14:20.788Z,15.75
2017-09-01T07:15:20.795Z,15.78
2017-09-01T07:16:20.938Z,15.80
2017-09-01T07:17:20.799Z,15.78
2017-09-01T07:18:20.847Z,15.79
2017-09-01T07:19:20.826Z,15.82
2017-09-01T07:20:20.809Z,15.85
2017-09-01T07:21:20.812Z,15.86
2017-09-01T07:22:20.820Z,15.87
2017-09-01T07:23:20.818Z,15.87
2017-09-01T07:24:20.821Z,15.87
2017-09-01T07:25:20.830Z,15.89
2017-09-01T07:26:20.837Z,15.93
2017-09-01T07:27:20.829Z,15.94
2017-09-01T07:28:20.831Z,15.94
2017-09-01T07:29:20.836Z,15.98
2017-09-01T07:30:20.844Z,16.05
2017-09-01T07:31:20.840Z,16.03
2017-09-01T07:32:20.916Z,16.06
2017-09-01T07:33:20.849Z,16.07
2017-09-01T07:34:20.851Z,16.10
2017-09-01T07:35:20.854Z,16.14
2017-09-01T07:36:20.856Z,16.10
2017-09-01T07:37:20.864Z,16.12
2017-09-01T07:38:20.911Z,16.19
2017-09-01T07:39:20.876Z,16.25
2017-09-01T07:40:20.866Z,16.30
2017-09-01T07:41:20.871Z,16.36
2017-09-01T07:42:20.875Z,16.37
2017-09-01T07:43:20.896Z,16.34
2017-09-01T07:44:20.879Z,16.31
2017-09-01T07:45:20.887Z,16.27
2017-09-01T07:46:20.891Z,16.32
2017-09-01T07:47:20.888Z,16.38
2017-09-01T07:48:20.895Z,16.40
2017-09-01T07:49:20.915Z,16.44
2017-09-01T07:50:20.974Z,16.50
2017-09-01T07:51:20.997Z,16.56
2017-09-01T07:52:20.904Z,16.49
2017-09-01T07:53:20.905Z,16.40
2017-09-01T07:54:20.909Z,16.41
2017-09-01T07:55:20.909Z,16.44
2017-09-01T07:56:20.914Z,16.40
2017-09-01T07:57:20.923Z,16.46
2017-09-01T07:58:20.933Z,16.47
2017-09-01T07:59:20.920Z,16.51
2017-09-01T08:00:20.942Z,16.52
2017-09-01T08:01:20.942Z,16.51
2017-09-01T08:02:20.950Z,16.44
2017-09-01T08:03:20.961Z,16.46
2017-09-01T08:04:20.940Z,16.45
2017-09-01T08:05:20.944Z,16.46
2017-09-01T08:06:20.968Z,16.51
2017-09-01T08:07:20.944Z,16.52
2017-09-01T08:08:20.951Z,16.54
2017-09-01T08:09:20.982Z,16.56
2017-09-01T08:10:20.956Z,16.57
2017-09-01T08:11:20.960Z,16.57
2017-09-01T08:12:20.994Z,16.59
2017-09-01T08:13:20.961Z,16.59
2017-09-01T08:14:20.965Z,16.57
2017-09-01T08:15:20.968Z,16.53
2017-09-01T08:16:20.971Z,16.49
2017-09-01T08:17:20.973Z,16.45
2017-09-01T08:18:20.986Z,16.39
2017-09-01T08:19:20.978Z,16.36
2017-09-01T08:20:20.982Z,16.39
2017-09-01T08:21:20.989Z,16.39
2017-09-01T08:22:20.990Z,16.39
2017-09-01T08:23:20.991Z,16.40
2017-09-01T08:24:20.996Z,16.37
2017-09-01T08:25:21.000Z,16.37
2017-09-01T08:26:21.108Z,16.36
2017-09-01T08:27:21.010Z,16.43
2017-09-01T08:28:21.022Z,16.43
2017-09-01T08:29:21.010Z,16.45
2017-09-01T08:30:21.054Z,16.47
2017-09-01T08:31:21.022Z,16.50
2017-09-01T08:32:21.067Z,16.50
2017-09-01T08:33:21.031Z,16.49
2017-09-01T08:34:21.029Z,16.52
2017-09-01T08:35:21.047Z,16.57
2017-09-01T08:36:21.030Z,16.63
2017-09-01T08:37:21.042Z,16.71
2017-09-01T08:38:21.035Z,16.73
2017-09-01T08:39:21.039Z,16.77
2017-09-01T08:40:21.039Z,16.89
2017-09-01T08:41:21.046Z,16.98
2017-09-01T08:42:21.069Z,17.00
2017-09-01T08:43:21.049Z,17.08
2017-09-01T08:44:21.052Z,17.09
2017-09-01T08:45:21.080Z,17.05
2017-09-01T08:46:21.073Z,17.07
2017-09-01T08:47:21.060Z,17.19
2017-09-01T08:48:21.069Z,17.39
2017-09-01T08:49:21.072Z,17.60
2017-09-01T08:50:21.069Z,17.78
2017-09-01T08:51:21.101Z,17.88
2017-09-01T08:52:21.077Z,17.93
2017-09-01T08:53:21.088Z,18.03
2017-09-01T08:54:21.127Z,18.02
2017-09-01T08:55:21.087Z,17.93
2017-09-01T08:56:21.095Z,17.81
2017-09-01T08:57:21.093Z,17.67
2017-09-01T08:58:21.096Z,17.66
2017-09-01T08:59:21.107Z,17.67
2017-09-01T09:00:21.133Z,17.74
2017-09-01T09:01:21.102Z,17.76
2017-09-01T09:02:21.103Z,17.79
2017-09-01T09:03:21.108Z,17.76
2017-09-01T09:04:21.110Z,17.61
2017-09-01T09:05:21.115Z,17.48
2017-09-01T09:06:21.116Z,17.50
2017-09-01T09:07:21.118Z,17.54
2017-09-01T09:08:21.192Z,17.49
2017-09-01T09:09:21.125Z,17.42
2017-09-01T09:10:21.126Z,17.33
2017-09-01T09:11:21.130Z,17.29
2017-09-01T09:12:21.136Z,17.30
2017-09-01T09:13:21.135Z,17.28
2017-09-01T09:14:21.141Z,17.26
2017-09-01T09:15:21.142Z,17.32
2017-09-01T09:16:21.162Z,17.28
2017-09-01T09:17:21.151Z,17.15
2017-09-01T09:18:21.150Z,17.03
2017-09-01T09:19:21.155Z,17.03
2017-09-01T09:20:21.168Z,17.03
2017-09-01T09:21:21.159Z,17.04
2017-09-01T09:22:21.164Z,17.03
2017-09-01T09:23:21.166Z,17.07
2017-09-01T09:24:21.166Z,17.08
2017-09-01T09:25:21.176Z,17.07
2017-09-01T09:26:21.179Z,17.08
2017-09-01T09:27:21.184Z,17.06
2017-09-01T09:28:21.230Z,17.05
2017-09-01T09:29:21.180Z,17.09
2017-09-01T09:30:21.186Z,17.10
2017-09-01T09:31:21.185Z,17.05
2017-09-01T09:32:21.192Z,17.04
2017-09-01T09:33:21.192Z,17.01
2017-09-01T09:34:21.195Z,16.99
2017-09-01T09:35:21.198Z,16.99
2017-09-01T09:36:21.198Z,16.98
2017-09-01T09:37:21.210Z,17.01
2017-09-01T09:38:21.209Z,17.03
2017-09-01T09:39:21.207Z,17.03
2017-09-01T09:40:21.212Z,16.99
2017-09-01T09:41:21.214Z,17.01
2017-09-01T09:42:21.219Z,17.05
2017-09-01T09:43:21.221Z,17.06
2017-09-01T09:44:21.231Z,17.08
2017-09-01T09:45:21.232Z,17.06
2017-09-01T09:46:21.229Z,17.06
2017-09-01T09:47:21.232Z,17.07
2017-09-01T09:48:21.242Z,17.06
2017-09-01T09:49:21.241Z,17.05
2017-09-01T09:50:21.250Z,17.05
2017-09-01T09:51:21.254Z,17.08
2017-09-01T09:52:21.244Z,17.08
2017-09-01T09:53:21.254Z,17.10
2017-09-01T09:54:21.262Z,17.11
2017-09-01T09:55:21.255Z,17.14
2017-09-01T09:56:21.260Z,17.13
2017-09-01T09:57:21.262Z,17.13
2017-09-01T09:58:21.265Z,17.14
2017-09-01T09:59:21.266Z,17.13
2017-09-01T10:00:21.269Z,17.14
2017-09-01T10:01:21.272Z,17.15
2017-09-01T10:02:21.276Z,17.19
2017-09-01T10:03:21.277Z,17.21
2017-09-01T10:04:21.298Z,17.19
2017-09-01T10:05:21.291Z,17.23
2017-09-01T10:06:21.283Z,17.26
2017-09-01T10:07:21.292Z,17.25
2017-09-01T10:08:21.293Z,17.28
2017-09-01T10:09:21.293Z,17.24
2017-09-01T10:10:21.295Z,17.17
2017-09-01T10:11:21.299Z,17.16
2017-09-01T10:12:21.306Z,17.14
2017-09-01T10:13:21.314Z,17.10
2017-09-01T10:14:21.322Z,17.13
2017-09-01T10:15:21.397Z,17.13
2017-09-01T10:16:21.313Z,17.12
2017-09-01T10:17:21.317Z,17.09
2017-09-01T10:18:21.320Z,17.11
2017-09-01T10:19:21.322Z,17.11
2017-09-01T10:20:21.330Z,17.08
2017-09-01T10:21:21.382Z,17.07
2017-09-01T10:22:21.329Z,17.12
2017-09-01T10:23:21.338Z,17.15
2017-09-01T10:24:21.337Z,17.14
2017-09-01T10:25:21.340Z,17.13
2017-09-01T10:26:21.342Z,17.16
2017-09-01T10:27:21.346Z,17.17
2017-09-01T10:28:21.351Z,17.19
2017-09-01T10:29:21.350Z,17.25
2017-09-01T10:30:21.371Z,17.28
2017-09-01T10:31:24.210Z,17.32
2017-09-01T10:32:21.357Z,17.33
2017-09-01T10:33:21.363Z,17.32
2017-09-01T10:34:21.365Z,17.27
2017-09-01T10:35:21.368Z,17.18
2017-09-01T10:36:21.372Z,17.17
2017-09-01T10:37:21.374Z,17.17
2017-09-01T10:38:21.376Z,17.14
2017-09-01T10:39:21.376Z,17.14
2017-09-01T10:40:21.381Z,17.15
2017-09-01T10:41:21.385Z,17.15
2017-09-01T10:42:21.387Z,17.09
2017-09-01T10:43:21.388Z,17.06
2017-09-01T10:44:21.407Z,17.07
2017-09-01T10:45:21.408Z,17.08
2017-09-01T10:46:21.543Z,17.08
2017-09-01T10:47:21.408Z,17.12
2017-09-01T10:48:21.457Z,17.15
2017-09-01T10:49:21.405Z,17.18
2017-09-01T10:50:21.407Z,17.24
2017-09-01T10:51:21.412Z,17.29
2017-09-01T10:52:21.421Z,17.33
2017-09-01T10:53:21.422Z,17.34
2017-09-01T10:54:21.420Z,17.39
2017-09-01T10:55:21.425Z,17.42
2017-09-01T10:56:21.425Z,17.45
2017-09-01T10:57:21.429Z,17.45
2017-09-01T10:58:21.432Z,17.45
2017-09-01T10:59:21.436Z,17.44
2017-09-01T11:00:21.478Z,17.41
2017-09-01T11:03:57.979Z,17.40
2017-09-01T11:03:59.240Z,17.44
2017-09-01T11:04:00.062Z,17.47
2017-09-01T11:04:21.449Z,17.47
2017-09-01T11:07:15.186Z,17.49
2017-09-01T11:07:16.233Z,17.53
2017-09-01T11:07:21.457Z,17.50
2017-09-01T11:08:21.470Z,17.47
2017-09-01T11:09:21.462Z,17.43
2017-09-01T11:10:21.486Z,17.43
2017-09-01T11:11:21.466Z,17.45
2017-09-01T11:12:21.475Z,17.48
2017-09-01T11:13:21.558Z,17.47
2017-09-01T11:14:21.480Z,17.51
2017-09-01T11:15:21.504Z,17.46
2017-09-01T11:16:21.482Z,17.39
2017-09-01T11:17:21.500Z,17.36
2017-09-01T11:18:21.494Z,17.33
2017-09-01T11:19:21.497Z,17.36
2017-09-01T11:20:21.495Z,17.39
2017-09-01T11:21:21.502Z,17.44
2017-09-01T11:22:21.505Z,17.41
2017-09-01T11:23:21.512Z,17.43
2017-09-01T11:24:21.528Z,17.45
2017-09-01T11:25:21.512Z,17.44
2017-09-01T11:26:21.518Z,17.43
2017-09-01T11:27:21.518Z,17.42
2017-09-01T11:28:21.517Z,17.41
2017-09-01T11:29:21.527Z,17.44
2017-09-01T11:30:21.590Z,17.47
2017-09-01T11:31:21.627Z,17.50
2017-09-01T11:32:21.569Z,17.52
2017-09-01T11:33:21.663Z,17.53
2017-09-01T11:34:21.682Z,17.53
2017-09-01T11:35:21.709Z,17.52
2017-09-01T11:36:23.077Z,17.45
2017-09-01T11:37:21.627Z,17.46
2017-09-01T11:38:21.578Z,17.45
2017-09-01T11:39:21.554Z,17.47
2017-09-01T11:40:21.555Z,17.46
2017-09-01T11:41:21.559Z,17.52
2017-09-01T11:42:21.565Z,17.60
2017-09-01T11:43:21.581Z,17.67
2017-09-01T11:44:21.567Z,17.69
2017-09-01T11:45:21.568Z,17.74
2017-09-01T11:46:21.569Z,17.79
2017-09-01T11:47:21.574Z,17.80
2017-09-01T11:48:21.576Z,17.83
2017-09-01T11:49:21.577Z,17.87
2017-09-01T11:50:21.584Z,17.79
2017-09-01T11:51:21.607Z,17.82
2017-09-01T11:52:21.590Z,17.87
2017-09-01T11:53:21.588Z,17.94
2017-09-01T11:54:21.592Z,18.00
2017-09-01T11:55:21.599Z,18.11
2017-09-01T11:56:21.599Z,18.20
2017-09-01T11:57:21.602Z,18.26
2017-09-01T11:58:21.608Z,18.34
2017-09-01T11:59:21.606Z,18.40
2017-09-01T12:00:21.610Z,18.40
2017-09-01T12:01:21.618Z,18.34
2017-09-01T12:02:21.616Z,18.28
2017-09-01T12:03:21.622Z,18.28
2017-09-01T12:04:21.626Z,18.23
2017-09-01T12:05:21.627Z,18.05
2017-09-01T12:06:21.628Z,18.03
2017-09-01T12:07:21.629Z,18.06
2017-09-01T12:08:22.177Z,18.07
2017-09-01T12:09:21.638Z,17.99
2017-09-01T12:10:21.647Z,18.02
2017-09-01T12:11:21.641Z,18.06
2017-09-01T12:12:21.646Z,18.11
2017-09-01T12:13:21.647Z,18.12
2017-09-01T12:14:21.651Z,18.09
2017-09-01T12:15:21.666Z,18.09
2017-09-01T12:16:21.659Z,18.03
2017-09-01T12:17:21.659Z,18.01
2017-09-01T12:18:21.661Z,18.02
2017-09-01T12:19:21.664Z,18.01
2017-09-01T12:20:21.670Z,18.02
2017-09-01T12:21:21.667Z,17.99
2017-09-01T12:22:21.671Z,17.90
2017-09-01T12:23:21.682Z,17.85
2017-09-01T12:24:21.682Z,17.80
2017-09-01T12:25:21.684Z,17.76
2017-09-01T12:26:21.686Z,17.77
2017-09-01T12:27:21.686Z,17.76
2017-09-01T12:28:21.690Z,17.73
2017-09-01T12:29:21.700Z,17.71
2017-09-01T12:30:21.702Z,17.64
2017-09-01T12:31:21.702Z,17.63
2017-09-01T12:32:21.765Z,17.66
2017-09-01T12:33:21.715Z,17.69
2017-09-01T12:34:21.712Z,17.72
2017-09-01T12:35:21.719Z,17.76
2017-09-01T12:36:21.716Z,17.80
2017-09-01T12:37:21.725Z,17.83
2017-09-01T12:38:21.717Z,17.89
2017-09-01T12:39:21.727Z,17.88
2017-09-01T12:40:21.729Z,17.82
2017-09-01T12:41:21.734Z,17.81
2017-09-01T12:42:21.734Z,17.78
2017-09-01T12:43:21.752Z,17.80
2017-09-01T12:44:21.738Z,17.79
2017-09-01T12:45:21.754Z,17.85
2017-09-01T12:46:21.741Z,17.85
2017-09-01T12:47:21.746Z,17.85
2017-09-01T12:48:21.750Z,17.86
2017-09-01T12:49:21.770Z,17.88
2017-09-01T12:50:21.790Z,17.91
2017-09-01T12:51:21.756Z,17.85
2017-09-01T12:52:21.759Z,17.87
2017-09-01T12:53:21.771Z,17.89
2017-09-01T12:54:21.765Z,17.82
2017-09-01T12:55:21.777Z,17.83
2017-09-01T12:56:21.780Z,17.87
2017-09-01T12:57:21.774Z,17.88
2017-09-01T12:58:21.780Z,17.84
2017-09-01T12:59:21.779Z,17.84
2017-09-01T13:00:21.787Z,17.81
2017-09-01T13:01:21.789Z,17.83
2017-09-01T13:02:21.791Z,17.78
2017-09-01T13:03:21.797Z,17.71
2017-09-01T13:04:21.802Z,17.67
2017-09-01T13:05:21.799Z,17.70
2017-09-01T13:06:21.800Z,17.73
2017-09-01T13:07:21.822Z,17.79
2017-09-01T13:08:21.806Z,17.77
2017-09-01T13:09:21.809Z,17.79
2017-09-01T13:10:21.814Z,17.83
2017-09-01T13:11:21.815Z,17.81
2017-09-01T13:12:21.818Z,17.80
2017-09-01T13:13:21.824Z,17.85
2017-09-01T13:14:21.824Z,17.86
2017-09-01T13:15:21.852Z,17.89
2017-09-01T13:16:21.830Z,17.92
2017-09-01T13:17:21.842Z,17.95
2017-09-01T13:18:21.871Z,17.95
2017-09-01T13:19:21.842Z,17.95
2017-09-01T13:20:21.847Z,17.93
2017-09-01T13:21:21.854Z,17.95
2017-09-01T13:22:21.849Z,17.96
2017-09-01T13:23:21.852Z,17.98
2017-09-01T13:24:21.868Z,17.93
2017-09-01T13:25:21.858Z,17.94
2017-09-01T13:26:21.861Z,17.99
2017-09-01T13:27:21.861Z,17.98
2017-09-01T13:28:21.864Z,17.98
2017-09-01T13:29:21.870Z,18.00
2017-09-01T13:30:21.875Z,17.93
2017-09-01T13:31:21.882Z,17.93
2017-09-01T13:32:21.886Z,17.95
2017-09-01T13:33:21.882Z,18.02
2017-09-01T13:34:21.883Z,18.08
2017-09-01T13:35:21.883Z,18.11
2017-09-01T13:36:21.900Z,18.04
2017-09-01T13:37:21.897Z,18.09
2017-09-01T13:38:23.407Z,18.11
2017-09-01T13:39:21.896Z,18.05
2017-09-01T13:40:21.938Z,18.08
2017-09-01T13:41:21.909Z,18.15
2017-09-01T13:42:21.905Z,18.15
2017-09-01T13:43:21.908Z,18.12
2017-09-01T13:44:21.915Z,18.09
2017-09-01T13:45:21.915Z,18.06
2017-09-01T13:46:21.918Z,18.06
2017-09-01T13:47:21.918Z,18.05
2017-09-01T13:48:21.924Z,18.10
2017-09-01T13:49:21.925Z,18.15
2017-09-01T13:50:21.929Z,18.16
2017-09-01T13:51:21.933Z,18.16
2017-09-01T13:52:21.936Z,18.22
2017-09-01T13:53:21.941Z,18.21
2017-09-01T13:54:21.943Z,18.25
2017-09-01T13:55:21.940Z,18.26
2017-09-01T13:56:21.951Z,18.26
2017-09-01T13:57:21.950Z,18.17
2017-09-01T13:58:21.960Z,18.12
2017-09-01T13:59:21.979Z,18.04
2017-09-01T14:00:22.671Z,18.00
2017-09-01T14:01:30.304Z,17.95
2017-09-01T14:02:21.967Z,17.90
2017-09-01T14:03:21.967Z,17.91
2017-09-01T14:04:21.967Z,17.89
2017-09-01T14:05:21.972Z,17.90
2017-09-01T14:06:21.974Z,17.94
2017-09-01T14:07:21.977Z,17.96
2017-09-01T14:08:21.977Z,17.92
2017-09-01T14:09:21.984Z,17.91
2017-09-01T14:10:21.985Z,17.88
2017-09-01T14:11:21.995Z,17.81
2017-09-01T14:12:21.993Z,17.79
2017-09-01T14:13:22.050Z,17.73
2017-09-01T14:14:21.995Z,17.74
2017-09-01T14:15:22.006Z,17.76
2017-09-01T14:16:22.006Z,17.77
2017-09-01T14:17:22.007Z,17.73
2017-09-01T14:18:22.006Z,17.75
2017-09-01T14:19:22.011Z,17.76
2017-09-01T14:20:22.018Z,17.76
2017-09-01T14:21:22.021Z,17.72
2017-09-01T14:22:22.018Z,17.70
2017-09-01T14:23:22.046Z,17.68
2017-09-01T14:24:22.032Z,17.68
2017-09-01T14:25:22.039Z,17.68
2017-09-01T14:26:22.030Z,17.69
2017-09-01T14:27:22.035Z,17.70
2017-09-01T14:28:22.035Z,17.73
2017-09-01T14:29:22.059Z,17.74
2017-09-01T14:30:22.128Z,17.73
2017-09-01T14:31:22.044Z,17.72
2017-09-01T14:32:22.048Z,17.74
2017-09-01T14:33:22.067Z,17.71
2017-09-01T14:34:22.059Z,17.66
2017-09-01T14:35:22.073Z,17.67
2017-09-01T14:36:22.065Z,17.67
2017-09-01T14:37:22.109Z,17.66
2017-09-01T14:38:22.117Z,17.67
2017-09-01T14:39:22.068Z,17.57
2017-09-01T14:40:22.072Z,17.53
2017-09-01T14:41:22.072Z,17.52
2017-09-01T14:42:22.100Z,17.52
2017-09-01T14:43:22.078Z,17.53
2017-09-01T14:44:22.078Z,17.56
2017-09-01T14:45:22.106Z,17.56
2017-09-01T14:46:22.086Z,17.59
2017-09-01T14:47:22.094Z,17.59
2017-09-01T14:48:22.093Z,17.62
2017-09-01T14:49:22.188Z,17.66
2017-09-01T14:50:22.101Z,17.71
2017-09-01T14:51:22.115Z,17.74
2017-09-01T14:52:22.114Z,17.76
2017-09-01T14:53:22.138Z,17.73
2017-09-01T14:54:22.193Z,17.72
2017-09-01T14:55:22.165Z,17.74
2017-09-01T14:56:22.138Z,17.73
2017-09-01T14:57:22.117Z,17.73
2017-09-01T14:58:22.120Z,17.70
2017-09-01T14:59:22.171Z,17.72
2017-09-01T15:00:22.162Z,17.77
2017-09-01T15:01:22.225Z,17.78
2017-09-01T15:02:22.133Z,17.77
2017-09-01T15:03:22.135Z,17.70
2017-09-01T15:04:22.178Z,17.72
2017-09-01T15:05:22.143Z,17.76
2017-09-01T15:06:22.143Z,17.78
2017-09-01T15:07:22.149Z,17.83
2017-09-01T15:08:22.194Z,17.88
2017-09-01T15:09:22.439Z,17.88
2017-09-01T15:10:22.157Z,17.91
2017-09-01T15:11:22.155Z,17.94
2017-09-01T15:12:22.161Z,17.96
2017-09-01T15:13:22.356Z,17.98
2017-09-01T15:14:22.167Z,17.97
2017-09-01T15:15:22.203Z,17.92
2017-09-01T15:16:22.411Z,17.89
2017-09-01T15:17:22.177Z,17.88
2017-09-01T15:18:22.216Z,17.91
2017-09-01T15:19:22.188Z,17.90
2017-09-01T15:20:22.290Z,17.88
2017-09-01T15:21:22.188Z,17.84
2017-09-01T15:22:22.192Z,17.84
2017-09-01T15:23:22.199Z,17.82
2017-09-01T15:24:22.202Z,17.82
2017-09-01T15:25:22.221Z,17.78
2017-09-01T15:26:22.200Z,17.76
2017-09-01T15:27:22.223Z,17.78
2017-09-01T15:28:22.207Z,17.80
2017-09-01T15:29:22.216Z,17.78
2017-09-01T15:30:22.213Z,17.76
2017-09-01T15:31:22.216Z,17.74
2017-09-01T15:32:22.231Z,17.73
2017-09-01T15:33:22.244Z,17.74
2017-09-01T15:34:22.262Z,17.74
2017-09-01T15:35:22.255Z,17.77
2017-09-01T15:36:22.262Z,17.76
2017-09-01T15:37:22.233Z,17.74
2017-09-01T15:38:22.235Z,17.70
2017-09-01T15:39:22.251Z,17.71
2017-09-01T15:40:22.238Z,17.74
2017-09-01T15:41:22.260Z,17.75
2017-09-01T15:42:22.253Z,17.75
2017-09-01T15:43:22.248Z,17.76
2017-09-01T15:44:22.565Z,17.77
2017-09-01T15:45:22.258Z,17.74
2017-09-01T15:46:22.287Z,17.67
2017-09-01T15:47:22.281Z,17.63
2017-09-01T15:48:22.299Z,17.60
2017-09-01T15:49:22.266Z,17.58
2017-09-01T15:50:22.270Z,17.59
2017-09-01T15:51:22.275Z,17.61
2017-09-01T15:52:22.283Z,17.60
2017-09-01T15:53:22.280Z,17.61
2017-09-01T15:54:22.281Z,17.60
2017-09-01T15:55:22.284Z,17.60
2017-09-01T15:56:22.294Z,17.59
2017-09-01T15:57:22.302Z,17.60
2017-09-01T15:58:22.294Z,17.61
2017-09-01T15:59:22.318Z,17.60
2017-09-01T16:00:22.320Z,17.57
2017-09-01T16:01:22.300Z,17.56
2017-09-01T16:02:22.304Z,17.53
2017-09-01T16:03:22.320Z,17.51
2017-09-01T16:04:22.314Z,17.47
2017-09-01T16:05:22.312Z,17.46
2017-09-01T16:06:22.319Z,17.45
2017-09-01T16:07:22.321Z,17.44
2017-09-01T16:08:22.322Z,17.41
2017-09-01T16:09:22.329Z,17.39
2017-09-01T16:10:22.327Z,17.38
2017-09-01T16:11:22.331Z,17.37
2017-09-01T16:12:22.334Z,17.36
2017-09-01T16:13:22.340Z,17.36
2017-09-01T16:14:22.345Z,17.37
2017-09-01T16:15:22.355Z,17.35
2017-09-01T16:16:22.366Z,17.37
2017-09-01T16:17:22.344Z,17.38
2017-09-01T16:18:22.357Z,17.38
2017-09-01T16:19:22.370Z,17.39
2017-09-01T16:20:22.359Z,17.40
2017-09-01T16:21:22.359Z,17.39
2017-09-01T16:22:22.366Z,17.39
2017-09-01T16:23:22.377Z,17.37
2017-09-01T16:24:22.381Z,17.33
2017-09-01T16:25:22.377Z,17.30
2017-09-01T16:26:22.373Z,17.32
2017-09-01T16:27:22.377Z,17.33
2017-09-01T16:28:22.378Z,17.31
2017-09-01T16:29:22.384Z,17.32
2017-09-01T16:30:22.388Z,17.32
2017-09-01T16:31:22.397Z,17.31
2017-09-01T16:32:22.394Z,17.31
2017-09-01T16:33:22.394Z,17.31
2017-09-01T16:34:22.398Z,17.32
2017-09-01T16:35:22.403Z,17.31
2017-09-01T16:36:22.407Z,17.30
2017-09-01T16:37:22.410Z,17.29
2017-09-01T16:38:22.418Z,17.24
2017-09-01T16:39:22.411Z,17.26
2017-09-01T16:40:22.419Z,17.25
2017-09-01T16:41:22.431Z,17.20
2017-09-01T16:42:22.420Z,17.17
2017-09-01T16:43:22.425Z,17.17
2017-09-01T16:44:22.530Z,17.16
2017-09-01T16:45:22.430Z,17.15
2017-09-01T16:46:22.440Z,17.12
2017-09-01T16:47:22.443Z,17.12
2017-09-01T16:48:22.474Z,17.12
2017-09-01T16:49:22.456Z,17.16
2017-09-01T16:50:22.453Z,17.16
2017-09-01T16:51:22.484Z,17.15
2017-09-01T16:52:22.738Z,17.16
2017-09-01T16:53:22.452Z,17.18
2017-09-01T16:54:22.501Z,17.15
2017-09-01T16:55:22.458Z,17.15
2017-09-01T16:56:22.459Z,17.16
2017-09-01T16:57:22.489Z,17.14
2017-09-01T16:58:22.466Z,17.14
2017-09-01T16:59:22.470Z,17.13
2017-09-01T17:00:22.478Z,17.10
2017-09-01T17:01:22.704Z,17.10
2017-09-01T17:02:22.478Z,17.06
2017-09-01T17:03:22.554Z,17.03
2017-09-01T17:04:22.506Z,17.02
2017-09-01T17:05:22.870Z,16.98
2017-09-01T17:06:22.504Z,16.97
2017-09-01T17:07:22.497Z,16.95
2017-09-01T17:08:22.504Z,16.92
2017-09-01T17:09:22.514Z,16.91
2017-09-01T17:10:22.502Z,16.87
2017-09-01T17:11:22.502Z,16.83
2017-09-01T17:12:22.506Z,16.83
2017-09-01T17:13:22.515Z,16.80
2017-09-01T17:14:22.514Z,16.75
2017-09-01T17:15:22.518Z,16.72
2017-09-01T17:16:22.520Z,16.69
2017-09-01T17:17:22.521Z,16.65
2017-09-01T17:18:22.524Z,16.62
2017-09-01T17:19:22.529Z,16.58
2017-09-01T17:20:22.531Z,16.54
2017-09-01T17:21:22.541Z,16.49
2017-09-01T17:22:22.544Z,16.44
2017-09-01T17:23:22.537Z,16.39
2017-09-01T17:24:22.545Z,16.36
2017-09-01T17:25:22.590Z,16.32
2017-09-01T17:26:22.624Z,16.28
2017-09-01T17:27:22.551Z,16.22
2017-09-01T17:28:22.559Z,16.17
2017-09-01T17:29:22.611Z,16.11
2017-09-01T17:30:22.889Z,16.07
2017-09-01T17:31:22.710Z,16.02
2017-09-01T17:32:22.575Z,15.97
2017-09-01T17:33:22.593Z,15.92
2017-09-01T17:34:22.578Z,15.88
2017-09-01T17:35:22.587Z,15.85
2017-09-01T17:36:22.622Z,15.82
2017-09-01T17:37:22.650Z,15.80
2017-09-01T17:38:22.583Z,15.75
2017-09-01T17:39:22.727Z,15.71
2017-09-01T17:40:22.589Z,15.68
2017-09-01T17:41:22.591Z,15.65
2017-09-01T17:42:22.596Z,15.61
2017-09-01T17:43:22.595Z,15.59
2017-09-01T17:44:22.606Z,15.54
2017-09-01T17:45:22.602Z,15.48
2017-09-01T17:46:22.606Z,15.42
2017-09-01T17:47:22.609Z,15.38
2017-09-01T17:48:22.612Z,15.36
2017-09-01T17:49:22.612Z,15.34
2017-09-01T17:50:22.616Z,15.33
2017-09-01T17:51:22.619Z,15.30
2017-09-01T17:52:22.625Z,15.26
2017-09-01T17:53:22.630Z,15.20
2017-09-01T17:54:22.631Z,15.17
2017-09-01T17:55:22.635Z,15.12
2017-09-01T17:56:22.635Z,15.10
2017-09-01T17:57:22.636Z,15.07
2017-09-01T17:58:22.648Z,15.07
2017-09-01T17:59:22.645Z,15.04
2017-09-01T18:00:22.648Z,15.03
2017-09-01T18:01:22.650Z,15.00
2017-09-01T18:02:22.659Z,14.97
2017-09-01T18:03:22.663Z,14.94
2017-09-01T18:04:22.659Z,14.92
2017-09-01T18:05:22.663Z,14.86
2017-09-01T18:06:22.662Z,14.83
2017-09-01T18:07:22.680Z,14.81
2017-09-01T18:08:22.753Z,14.78
2017-09-01T18:09:22.674Z,14.78
2017-09-01T18:10:22.687Z,14.75
2017-09-01T18:11:22.685Z,14.70
2017-09-01T18:12:22.683Z,14.68
2017-09-01T18:13:22.699Z,14.64
2017-09-01T18:14:22.712Z,14.61
2017-09-01T18:15:22.694Z,14.56
2017-09-01T18:16:22.707Z,14.54
2017-09-01T18:17:22.697Z,14.48
2017-09-01T18:18:22.803Z,14.45
2017-09-01T18:19:22.706Z,14.41
2017-09-01T18:20:22.722Z,14.39
2017-09-01T18:21:22.712Z,14.38
2017-09-01T18:22:22.710Z,14.36
2017-09-01T18:23:22.726Z,14.35
2017-09-01T18:24:22.715Z,14.31
2017-09-01T18:25:22.724Z,14.28
2017-09-01T18:26:22.743Z,14.31
2017-09-01T18:27:22.729Z,14.32
2017-09-01T18:28:22.729Z,14.32
2017-09-01T18:29:22.729Z,14.29
2017-09-01T18:30:22.737Z,14.27
2017-09-01T18:33:36.036Z,14.24
2017-09-01T18:33:37.398Z,14.20
2017-09-01T18:33:38.221Z,14.17
2017-09-01T18:34:22.749Z,14.15
2017-09-01T18:37:17.942Z,14.11
2017-09-01T18:37:19.205Z,14.10
2017-09-01T18:37:22.757Z,14.11
2017-09-01T18:38:22.755Z,14.13
2017-09-01T18:39:22.761Z,14.12
2017-09-01T18:40:22.762Z,14.09
2017-09-01T18:41:22.820Z,14.07
2017-09-01T18:42:22.766Z,14.05
2017-09-01T18:43:22.768Z,14.00
2017-09-01T18:44:22.779Z,13.98
2017-09-01T18:45:23.464Z,13.95
2017-09-01T18:46:22.779Z,13.89
2017-09-01T18:47:22.782Z,13.84
2017-09-01T18:48:22.784Z,13.85
2017-09-01T18:49:22.791Z,13.86
2017-09-01T18:50:22.810Z,13.83
2017-09-01T18:51:22.800Z,13.86
2017-09-01T18:52:22.796Z,13.82
2017-09-01T18:53:22.800Z,13.75
2017-09-01T18:54:22.806Z,13.73
2017-09-01T18:55:22.808Z,13.73
2017-09-01T18:56:22.807Z,13.75
2017-09-01T18:57:22.813Z,13.79
2017-09-01T18:58:22.812Z,13.81
2017-09-01T18:59:22.818Z,13.83
2017-09-01T19:00:22.823Z,13.84
2017-09-01T19:01:22.822Z,13.82